Time;durP1;ratioP1;P1;durP2;ratioP2;P2;SDS_P1;SDS_P2;PMS_P1;PMS_P2;Temp;Humidity;BMP_temperature;BMP_pressure;BME280_temperature;BME280_humidity;BME280_pressure;Samples;Min_cycle;Max_cycle;Signal;HPM_P1;HPM_P2
2021/06/30 00:00:49;;;;;;;10.43;7.60;;;;;;;25.23;64.48;100262.23;1817186;77;22617;-54
2021/06/30 00:03:22;;;;;;;11.08;7.78;;;;;;;25.21;64.41;100260.15;1835452;77;22147;-53
2021/06/30 00:06:18;;;;;;;11.95;7.80;;;;;;;25.18;64.27;100256.34;1813018;77;22213;-54
2021/06/30 00:08:50;;;;;;;9.03;7.05;;;;;;;25.16;64.22;100265.05;1834474;77;22160;-61
2021/06/30 00:11:23;;;;;;;9.95;7.47;;;;;;;25.12;64.28;100264.41;1835893;77;22205;-54
2021/06/30 00:13:56;;;;;;;14.00;8.45;;;;;;;25.12;64.32;100259.02;1834232;77;22716;-54
2021/06/30 00:16:32;;;;;;;9.03;7.47;;;;;;;25.09;64.49;100252.05;1810529;77;22186;-53
2021/06/30 00:19:27;;;;;;;13.93;9.93;;;;;;;25.11;64.86;100261.84;1818765;77;27975;-54
2021/06/30 00:22:00;;;;;;;11.83;8.83;;;;;;;25.16;64.91;100259.67;1808304;77;22162;-53
2021/06/30 00:24:52;;;;;;;10.13;6.78;;;;;;;25.14;64.84;100254.38;1814079;77;22138;-62
2021/06/30 00:27:25;;;;;;;12.05;7.90;;;;;;;25.15;64.69;100257.45;1820941;77;22201;-62
2021/06/30 00:29:59;;;;;;;10.08;7.53;;;;;;;25.12;64.69;100256.83;1830917;77;22139;-62
2021/06/30 00:32:32;;;;;;;10.85;7.83;;;;;;;25.06;64.59;100254.97;1817808;77;22190;-61
2021/06/30 00:35:06;;;;;;;9.78;7.00;;;;;;;25.11;64.31;100260.50;1834496;77;22176;-62
2021/06/30 00:37:58;;;;;;;9.60;6.95;;;;;;;25.07;64.28;100255.81;1834441;77;22175;-61
2021/06/30 00:40:31;;;;;;;10.68;7.10;;;;;;;25.07;64.28;100255.81;1820973;77;22205;-62
2021/06/30 00:43:05;;;;;;;13.20;8.33;;;;;;;25.05;64.24;100258.64;1828931;77;22151;-54
2021/06/30 00:45:38;;;;;;;14.98;7.85;;;;;;;25.03;64.57;100260.59;1827562;77;22187;-54
2021/06/30 00:48:30;;;;;;;12.93;8.43;;;;;;;24.96;64.65;100256.63;1834431;77;22607;-54
2021/06/30 00:51:03;;;;;;;9.48;7.60;;;;;;;24.94;64.81;100264.84;1836658;77;22155;-54
2021/06/30 00:53:36;;;;;;;11.22;8.10;;;;;;;24.92;65.23;100273.52;1834469;77;22179;-61
2021/06/30 00:56:10;;;;;;;10.13;8.13;;;;;;;24.88;66.10;100277.41;1819675;77;22648;-54
2021/06/30 00:58:43;;;;;;;11.95;9.18;;;;;;;24.90;66.54;100268.73;1852916;77;22175;-54
2021/06/30 01:01:16;;;;;;;9.23;8.25;;;;;;;24.90;66.91;100275.92;1815158;77;22178;-62
2021/06/30 01:04:09;;;;;;;11.55;8.90;;;;;;;24.83;67.63;100271.97;1834507;77;22164;-62
2021/06/30 01:06:42;;;;;;;11.68;8.18;;;;;;;24.89;67.78;100271.05;1773248;77;22238;-63
2021/06/30 01:09:40;;;;;;;10.50;8.75;;;;;;;24.89;68.01;100268.83;1840217;77;22570;-63
2021/06/30 01:12:13;;;;;;;10.88;8.75;;;;;;;24.81;68.39;100265.37;1823843;77;22173;-62
2021/06/30 01:14:46;;;;;;;9.73;8.40;;;;;;;24.79;68.66;100261.43;1833705;77;22156;-63
2021/06/30 01:17:19;;;;;;;11.70;10.50;;;;;;;24.78;68.86;100265.09;1808014;77;22618;-55
2021/06/30 01:20:11;;;;;;;11.65;9.95;;;;;;;24.77;69.08;100271.45;1820611;77;22182;-54
2021/06/30 01:23:03;;;;;;;13.08;10.32;;;;;;;24.75;69.24;100275.23;1833495;77;22631;-62
2021/06/30 01:25:47;;;;;;;12.28;10.35;;;;;;;24.73;69.34;100267.27;1812827;77;22587;-55
2021/06/30 01:28:39;;;;;;;10.58;9.38;;;;;;;24.70;69.48;100271.99;1828306;77;22179;-62
2021/06/30 01:31:13;;;;;;;10.63;9.63;;;;;;;24.65;69.64;100267.80;1837755;77;22169;-55
2021/06/30 01:33:46;;;;;;;10.28;9.23;;;;;;;24.70;69.49;100271.99;1806152;77;22150;-63
2021/06/30 01:36:48;;;;;;;14.55;9.70;;;;;;;24.70;69.55;100277.37;1808092;77;22158;-55
2021/06/30 01:39:22;;;;;;;10.30;9.30;;;;;;;24.65;69.64;100273.19;1834490;77;22132;-63
2021/06/30 01:42:14;;;;;;;12.20;9.40;;;;;;;24.61;69.75;100273.03;1804940;77;22233;-55
2021/06/30 01:44:48;;;;;;;9.80;8.85;;;;;;;24.58;69.94;100275.95;1817438;77;22175;-55
2021/06/30 01:47:40;;;;;;;11.22;9.40;;;;;;;24.40;70.70;100279.49;1820040;77;22197;-63
2021/06/30 01:50:14;;;;;;;11.28;10.18;;;;;;;24.47;70.62;100277.23;1847871;77;22179;-63
2021/06/30 01:52:47;;;;;;;11.38;9.63;;;;;;;24.60;70.22;100280.73;1831712;77;22162;-63
2021/06/30 01:55:39;;;;;;;10.53;9.25;;;;;;;24.64;70.15;100278.70;1827740;77;22182;-64
2021/06/30 01:58:22;;;;;;;10.98;9.48;;;;;;;24.66;70.02;100279.44;1834480;77;22175;-55
2021/06/30 02:01:13;;;;;;;11.95;10.03;;;;;;;24.64;69.87;100280.88;1790379;77;22222;-56
2021/06/30 02:03:47;;;;;;;12.85;11.48;;;;;;;24.64;69.97;100280.88;1831811;77;22603;-64
2021/06/30 02:06:41;;;;;;;14.93;11.70;;;;;;;24.68;70.04;100284.70;1813830;77;22214;-63
2021/06/30 02:09:15;;;;;;;12.75;11.53;;;;;;;24.69;70.05;100286.42;1833695;77;20655;-65
2021/06/30 02:12:07;;;;;;;14.20;11.75;;;;;;;24.70;70.12;100286.80;1805026;77;22210;-64
2021/06/30 02:14:40;;;;;;;12.60;11.28;;;;;;;24.71;70.14;100280.44;1827007;77;22116;-55
2021/06/30 02:17:33;;;;;;;16.12;11.43;;;;;;;24.73;70.14;100286.09;1908848;74;22116;-55
2021/06/30 02:20:08;;;;;;;17.37;11.70;;;;;;;24.70;70.24;100284.09;1852896;77;22639;-61
2021/06/30 02:23:00;;;;;;;14.70;12.80;;;;;;;24.73;70.24;100290.64;1829584;77;22571;-64
2021/06/30 02:25:33;;;;;;;13.98;12.10;;;;;;;24.74;70.18;100295.05;1828531;77;22170;-55
2021/06/30 02:28:06;;;;;;;17.55;12.95;;;;;;;24.74;70.16;100297.23;1851909;77;22155;-55
2021/06/30 02:30:59;;;;;;;14.10;11.83;;;;;;;24.78;69.97;100293.85;1813842;77;22210;-55
2021/06/30 02:33:32;;;;;;;14.15;12.47;;;;;;;24.78;69.87;100287.13;1834467;77;22591;-63
2021/06/30 02:36:06;;;;;;;15.15;12.58;;;;;;;24.79;69.86;100290.19;1839393;77;22170;-55
2021/06/30 02:38:58;;;;;;;15.43;12.25;;;;;;;24.83;69.95;100295.72;1834426;77;22148;-56
2021/06/30 02:41:31;;;;;;;16.27;11.43;;;;;;;24.84;69.97;100297.44;1795494;77;22656;-56
2021/06/30 02:44:23;;;;;;;11.55;10.45;;;;;;;24.85;70.07;100302.32;1810681;77;22199;-64
2021/06/30 02:46:56;;;;;;;12.80;11.55;;;;;;;24.86;70.08;100301.34;1827721;77;22185;-55
2021/06/30 02:49:29;;;;;;;12.20;10.80;;;;;;;24.87;70.12;100294.52;1828557;77;23558;-56
2021/06/30 02:52:21;;;;;;;19.35;11.83;;;;;;;24.92;70.14;100300.91;1804132;77;22630;-63
2021/06/30 02:54:55;;;;;;;13.90;11.10;;;;;;;24.94;70.06;100308.37;1852833;77;22610;-56
2021/06/30 02:57:49;;;;;;;15.48;11.53;;;;;;;24.97;69.94;100300.08;1852781;77;22175;-64
2021/06/30 03:00:24;;;;;;;15.20;11.93;;;;;;;25.03;69.76;100304.13;1805036;77;22174;-56
2021/06/30 03:03:16;;;;;;;16.77;12.63;;;;;;;25.06;69.53;100303.44;1834378;77;22198;-55
2021/06/30 03:05:49;;;;;;;15.40;12.00;;;;;;;25.09;69.41;100300.98;1843082;77;22169;-56
2021/06/30 03:08:22;;;;;;;14.83;11.73;;;;;;;25.13;69.33;100299.78;1837837;77;22174;-64
2021/06/30 03:10:56;;;;;;;25.23;13.90;;;;;;;25.16;69.26;100298.20;1822717;77;22166;-55
2021/06/30 03:13:29;;;;;;;20.75;11.85;;;;;;;25.19;69.20;100299.80;1834475;77;22175;-55
2021/06/30 03:16:02;;;;;;;16.15;11.65;;;;;;;25.20;69.25;100300.17;1840231;77;22174;-55
2021/06/30 03:18:54;;;;;;;16.90;13.50;;;;;;;25.21;69.27;100301.89;1812999;77;22550;-64
2021/06/30 03:21:27;;;;;;;16.57;12.78;;;;;;;25.23;69.34;100298.59;1811537;77;22225;-55
2021/06/30 03:24:00;;;;;;;17.42;12.95;;;;;;;25.24;69.41;100293.11;1834470;77;22171;-63
2021/06/30 03:26:33;;;;;;;14.55;13.00;;;;;;;25.29;69.52;100298.14;1806999;77;22225;-64
2021/06/30 03:29:07;;;;;;;12.98;11.60;;;;;;;25.35;69.69;100292.79;1833728;77;22579;-55
2021/06/30 03:31:40;;;;;;;17.87;14.18;;;;;;;25.41;69.27;100288.25;1813649;77;22210;-64
2021/06/30 03:34:13;;;;;;;15.83;14.23;;;;;;;25.50;69.54;100288.94;1834476;77;22180;-55
2021/06/30 03:36:46;;;;;;;15.93;13.60;;;;;;;25.57;69.61;100287.99;1805005;77;22185;-54
2021/06/30 03:39:19;;;;;;;18.00;14.50;;;;;;;25.59;69.74;100281.13;1811131;77;22634;-62
2021/06/30 03:41:52;;;;;;;15.18;13.70;;;;;;;25.63;69.70;100283.45;1828558;77;22193;-63
2021/06/30 03:44:45;;;;;;;18.82;14.40;;;;;;;25.72;69.71;100288.64;1831226;77;22128;-55
2021/06/30 03:47:18;;;;;;;20.17;14.70;;;;;;;25.79;69.80;100280.92;1803500;77;22210;-64
2021/06/30 03:49:51;;;;;;;16.12;14.47;;;;;;;25.87;69.75;100281.66;1834475;77;22176;-55
2021/06/30 03:52:26;;;;;;;16.07;14.15;;;;;;;25.98;69.67;100281.20;1819255;77;22205;-54
2021/06/30 03:55:18;;;;;;;16.00;14.33;;;;;;;26.05;69.57;100287.46;1821262;77;22150;-54
2021/06/30 03:57:51;;;;;;;21.85;15.05;;;;;;;26.04;69.81;100279.00;1829029;77;22159;-55
2021/06/30 04:00:43;;;;;;;14.60;12.95;;;;;;;26.13;69.55;100275.58;1817289;77;22213;-65
2021/06/30 04:03:19;;;;;;;17.17;14.87;;;;;;;26.20;69.08;100267.87;1833557;77;22147;-64
2021/06/30 04:05:52;;;;;;;22.50;19.05;;;;;;;26.30;69.24;100272.03;1813229;77;28090;-56
2021/06/30 04:08:45;;;;;;;63.98;19.23;;;;;;;26.42;69.13;100275.94;1852795;77;22135;-65
2021/06/30 04:11:18;;;;;;;19.02;15.43;;;;;;;26.53;69.02;100273.71;1835932;77;22633;-63
2021/06/30 04:14:10;;;;;;;22.65;19.17;;;;;;;26.65;68.79;100278.63;1834434;77;22164;-55
2021/06/30 04:16:43;;;;;;;22.80;20.43;;;;;;;26.76;68.93;100281.78;1808499;77;22579;-55
2021/06/30 04:19:35;;;;;;;35.48;20.65;;;;;;;26.85;69.08;100290.50;1833740;77;22172;-63
2021/06/30 04:22:08;;;;;;;42.27;19.77;;;;;;;26.91;68.98;100282.38;1841164;77;22211;-56
2021/06/30 04:24:42;;;;;;;33.67;20.02;;;;;;;27.01;68.41;100280.63;1833694;77;22116;-55
2021/06/30 04:27:33;;;;;;;42.00;19.57;;;;;;;27.19;68.43;100285.45;1908731;74;22503;-64
2021/06/30 04:30:10;;;;;;;33.88;19.37;;;;;;;27.36;68.07;100283.19;1832345;77;22151;-64
2021/06/30 04:33:02;;;;;;;38.63;18.92;;;;;;;27.53;68.06;100283.12;1834554;77;22567;-63
2021/06/30 04:35:55;;;;;;;43.33;19.30;;;;;;;27.66;67.97;100278.86;1805944;77;22732;-55
2021/06/30 04:38:47;;;;;;;41.83;18.70;;;;;;;27.75;67.80;100273.54;1820469;77;22225;-55
2021/06/30 04:41:39;;;;;;;23.50;18.80;;;;;;;27.87;67.14;100273.44;1813553;77;22630;-64
2021/06/30 04:44:13;;;;;;;25.35;18.42;;;;;;;27.98;66.96;100272.01;1839871;77;22142;-55
2021/06/30 04:47:24;;;;;;;23.10;19.15;;;;;;;28.15;66.83;100274.61;1802451;77;22298;-63
2021/06/30 04:49:57;;;;;;;18.32;14.95;;;;;;;28.26;66.98;100276.35;1827147;77;22111;-63
2021/06/30 04:52:30;;;;;;;21.95;14.55;;;;;;;28.33;65.24;100272.11;1819040;77;22208;-62
2021/06/30 04:55:05;;;;;;;17.57;15.28;;;;;;;28.41;65.72;100275.50;1851476;77;22143;-62
2021/06/30 04:57:38;;;;;;;20.12;14.73;;;;;;;28.58;65.36;100279.39;1831905;77;22155;-55
2021/06/30 05:00:31;;;;;;;16.55;14.60;;;;;;;28.75;64.83;100275.63;1828230;77;22246;-55
2021/06/30 05:03:04;;;;;;;19.45;15.25;;;;;;;28.86;63.90;100282.31;1831668;77;22171;-55
2021/06/30 05:05:37;;;;;;;16.07;14.38;;;;;;;28.98;62.82;100276.78;1827579;77;22175;-55
2021/06/30 05:08:10;;;;;;;15.53;14.03;;;;;;;29.03;61.88;100283.47;1820198;77;22512;-55
2021/06/30 05:10:44;;;;;;;16.65;13.83;;;;;;;29.09;62.33;100281.55;1820691;77;22592;-55
2021/06/30 05:13:17;;;;;;;13.43;11.90;;;;;;;29.21;61.01;100282.27;1833519;77;22147;-55
2021/06/30 05:15:50;;;;;;;13.60;12.28;;;;;;;29.29;59.96;100282.05;1822522;77;22166;-55
2021/06/30 05:18:42;;;;;;;13.95;12.37;;;;;;;29.36;59.66;100276.41;1824736;77;22120;-55
2021/06/30 05:21:16;;;;;;;15.63;11.28;;;;;;;29.53;59.84;100281.15;1819184;77;22206;-55
2021/06/30 05:24:08;;;;;;;14.87;11.75;;;;;;;29.77;58.44;100285.22;1852788;77;22171;-55
2021/06/30 05:26:41;;;;;;;14.65;13.03;;;;;;;29.94;58.02;100285.48;1801143;77;22185;-55
2021/06/30 05:29:14;;;;;;;14.65;12.98;;;;;;;30.09;57.70;100293.50;1804184;77;22542;-55
2021/06/30 05:32:07;;;;;;;15.30;13.75;;;;;;;30.22;57.65;100287.77;1807209;77;22658;-55
2021/06/30 05:34:40;;;;;;;14.10;12.63;;;;;;;30.37;56.91;100293.55;1829973;77;22163;-55
2021/06/30 05:37:13;;;;;;;14.15;12.63;;;;;;;30.49;56.56;100293.33;1805284;77;22162;-55
2021/06/30 05:39:46;;;;;;;14.28;12.98;;;;;;;30.68;55.89;100289.70;1834483;77;22599;-55
2021/06/30 05:42:20;;;;;;;20.25;14.33;;;;;;;30.88;55.53;100293.63;1798846;77;22174;-55
2021/06/30 05:44:53;;;;;;;19.67;16.35;;;;;;;31.12;55.11;100290.31;1805657;77;22174;-55
2021/06/30 05:48:06;;;;;;;15.75;14.30;;;;;;;31.37;55.06;100290.05;1820687;77;22660;-56
2021/06/30 05:50:39;;;;;;;15.78;14.28;;;;;;;31.55;54.92;100295.46;1819804;77;22197;-55
2021/06/30 05:53:50;;;;;;;16.10;14.53;;;;;;;31.74;53.70;100284.08;1813201;77;22777;-55
2021/06/30 05:56:23;;;;;;;15.45;13.83;;;;;;;31.97;53.66;100289.84;1820402;77;22224;-55
2021/06/30 05:59:03;;;;;;;23.85;14.18;;;;;;;32.19;52.59;100291.63;1832278;77;22129;-54
2021/06/30 06:01:36;;;;;;;14.03;12.60;;;;;;;32.38;51.24;100296.00;1811054;77;22640;-55
2021/06/30 06:04:28;;;;;;;13.22;12.03;;;;;;;32.45;50.60;100296.22;1812574;77;22561;-55
2021/06/30 06:07:02;;;;;;;14.03;12.63;;;;;;;32.51;50.43;100295.53;1826434;77;22202;-55
2021/06/30 06:09:36;;;;;;;15.43;14.03;;;;;;;32.74;49.77;100295.78;1831176;77;22148;-55
2021/06/30 06:12:28;;;;;;;14.85;13.58;;;;;;;32.80;49.80;100296.13;1804392;77;22227;-55
2021/06/30 06:15:03;;;;;;;12.43;11.33;;;;;;;32.88;49.46;100292.10;1834499;77;22125;-55
2021/06/30 06:17:56;;;;;;;12.58;10.48;;;;;;;32.97;46.88;100297.05;1817329;77;22139;-55
2021/06/30 06:20:29;;;;;;;11.68;10.40;;;;;;;33.04;46.56;100296.23;1812693;77;22202;-55
2021/06/30 06:23:02;;;;;;;11.63;10.18;;;;;;;33.12;46.38;100300.83;1834368;77;22179;-55
2021/06/30 06:25:42;;;;;;;11.90;10.75;;;;;;;33.09;46.62;100297.60;1802042;77;22221;-55
2021/06/30 06:28:15;;;;;;;13.08;11.80;;;;;;;33.26;46.71;100300.66;1822172;77;22614;-55
2021/06/30 06:30:49;;;;;;;25.30;13.10;;;;;;;33.42;47.56;100300.37;1815175;77;22579;-55
2021/06/30 06:33:41;;;;;;;13.03;11.75;;;;;;;33.68;47.20;100307.50;1834416;77;22587;-55
2021/06/30 06:36:14;;;;;;;10.63;9.60;;;;;;;33.76;46.97;100301.54;1819286;77;22174;-55
2021/06/30 06:38:48;;;;;;;11.55;9.63;;;;;;;33.90;45.55;100299.10;1830461;77;22177;-55
2021/06/30 06:41:21;;;;;;;9.93;8.98;;;;;;;33.99;45.39;100298.09;1817357;77;22218;-55
2021/06/30 06:43:54;;;;;;;9.68;8.78;;;;;;;34.16;45.32;100292.59;1828045;77;22163;-55
2021/06/30 06:46:27;;;;;;;10.18;8.98;;;;;;;34.32;45.31;100290.31;1816274;77;22178;-55
2021/06/30 06:49:00;;;;;;;10.98;9.78;;;;;;;34.43;45.57;100290.42;1832739;77;22172;-56
2021/06/30 06:51:34;;;;;;;11.00;9.48;;;;;;;34.54;44.72;100288.70;1815110;77;22609;-55
2021/06/30 06:54:07;;;;;;;10.63;9.53;;;;;;;34.56;44.59;100286.64;1820874;77;22185;-55
2021/06/30 06:57:00;;;;;;;9.80;8.70;;;;;;;34.70;44.98;100289.13;1808846;77;22206;-55
2021/06/30 06:59:33;;;;;;;10.65;9.05;;;;;;;34.93;44.71;100286.42;1828647;77;22138;-55
2021/06/30 07:02:07;;;;;;;13.40;10.43;;;;;;;35.11;44.38;100283.41;1783607;77;22205;-56
2021/06/30 07:04:40;;;;;;;9.93;8.43;;;;;;;35.29;44.49;100283.09;1834437;77;22175;-56
2021/06/30 07:07:34;;;;;;;8.98;8.08;;;;;;;35.55;42.35;100281.85;1909998;74;22116;-56
2021/06/30 07:10:09;;;;;;;9.60;7.25;;;;;;;35.66;42.05;100280.57;1828593;77;22199;-56
2021/06/30 07:12:42;;;;;;;115.32;13.40;;;;;;;35.63;41.10;100278.20;1825092;77;22209;-56
2021/06/30 07:15:15;;;;;;;22.10;6.50;;;;;;;35.78;41.38;100280.95;1832573;77;22156;-56
2021/06/30 07:17:48;;;;;;;19.98;7.08;;;;;;;35.86;40.17;100275.40;1837628;77;22138;-56
2021/06/30 07:20:22;;;;;;;13.83;6.83;;;;;;;36.06;40.42;100272.64;1816296;77;22207;-56
2021/06/30 07:22:55;;;;;;;8.50;5.75;;;;;;;36.32;40.33;100271.61;1852755;77;22155;-56
2021/06/30 07:25:28;;;;;;;8.18;5.75;;;;;;;36.49;39.30;100274.17;1829762;77;22206;-56
2021/06/30 07:28:01;;;;;;;8.68;5.62;;;;;;;36.49;39.14;100271.44;1828104;77;22548;-56
2021/06/30 07:30:35;;;;;;;7.10;5.37;;;;;;;36.57;39.42;100269.96;1846541;77;22209;-56
2021/06/30 07:33:08;;;;;;;6.25;5.65;;;;;;;36.65;38.86;100269.52;1834442;77;22580;-56
2021/06/30 07:35:41;;;;;;;19.10;6.95;;;;;;;36.69;39.15;100267.55;1826771;77;22237;-56
2021/06/30 07:38:14;;;;;;;8.45;5.97;;;;;;;36.72;39.04;100267.17;1815311;77;22145;-56
2021/06/30 07:41:06;;;;;;;8.90;5.60;;;;;;;36.82;39.57;100264.10;1815672;77;22166;-56
2021/06/30 07:43:40;;;;;;;7.30;5.80;;;;;;;36.95;39.75;100266.12;1827390;77;22617;-56
2021/06/30 07:46:13;;;;;;;15.90;6.17;;;;;;;37.16;38.73;100265.84;1809109;77;22170;-56
2021/06/30 07:48:46;;;;;;;8.28;5.85;;;;;;;37.27;39.14;100268.56;1819947;77;22192;-56
2021/06/30 07:51:19;;;;;;;21.85;6.20;;;;;;;37.51;38.51;100269.22;1818146;77;22202;-56
2021/06/30 07:53:53;;;;;;;11.00;6.08;;;;;;;37.61;37.97;100272.44;1834367;77;22191;-56
2021/06/30 07:56:36;;;;;;;19.62;6.90;;;;;;;37.62;37.49;100272.26;1805283;77;22218;-56
2021/06/30 07:59:28;;;;;;;13.90;6.60;;;;;;;37.58;37.67;100275.08;1852703;77;22178;-56
2021/06/30 08:02:20;;;;;;;9.83;5.70;;;;;;;37.54;38.06;100276.52;1804391;77;22218;-56
2021/06/30 08:04:53;;;;;;;5.40;4.70;;;;;;;37.63;37.16;100264.86;1826808;77;22575;-56
2021/06/30 08:07:27;;;;;;;5.90;4.87;;;;;;;37.70;37.19;100264.92;1806335;77;22235;-56
2021/06/30 08:10:19;;;;;;;12.37;6.90;;;;;;;37.87;35.62;100267.66;1809811;77;22210;-56
2021/06/30 08:12:52;;;;;;;15.15;5.80;;;;;;;37.77;36.40;100261.16;1827678;77;22559;-57
2021/06/30 08:15:26;;;;;;;7.03;5.22;;;;;;;37.84;36.36;100264.48;1829504;77;22160;-56
2021/06/30 08:18:18;;;;;;;14.35;5.60;;;;;;;37.92;35.39;100258.86;1834506;77;22172;-56
2021/06/30 08:20:52;;;;;;;7.97;5.12;;;;;;;37.77;34.92;100258.41;1842713;77;22169;-56
2021/06/30 08:23:45;;;;;;;6.00;5.37;;;;;;;37.83;35.17;100260.86;1820186;77;22166;-56
2021/06/30 08:26:19;;;;;;;10.43;5.12;;;;;;;37.79;35.91;100263.18;1812516;77;22218;-56
2021/06/30 08:28:52;;;;;;;6.33;4.80;;;;;;;37.53;36.65;100262.47;1834406;77;22179;-56
2021/06/30 08:31:26;;;;;;;7.50;5.05;;;;;;;37.45;35.78;100255.25;1816106;77;22566;-56
2021/06/30 08:34:18;;;;;;;8.23;5.53;;;;;;;37.48;36.70;100257.59;1852018;77;22158;-56
2021/06/30 08:36:57;;;;;;;36.50;7.47;;;;;;;37.52;35.73;100254.45;1810945;77;22179;-56
2021/06/30 08:39:32;;;;;;;8.13;5.00;;;;;;;37.66;36.30;100252.64;1833356;77;22660;-56
2021/06/30 08:42:05;;;;;;;30.08;7.20;;;;;;;37.70;35.31;100247.91;1807691;77;22174;-56
2021/06/30 08:44:38;;;;;;;6.95;5.55;;;;;;;37.63;35.33;100249.76;1826549;77;22180;-57
2021/06/30 08:47:12;;;;;;;6.37;4.90;;;;;;;37.52;35.78;100256.66;1806285;77;22174;-56
2021/06/30 08:49:45;;;;;;;12.63;5.67;;;;;;;37.60;35.66;100251.53;1819868;77;22199;-56
2021/06/30 08:52:18;;;;;;;7.20;5.20;;;;;;;37.67;35.80;100245.56;1804838;77;22171;-56
2021/06/30 08:55:12;;;;;;;7.17;5.70;;;;;;;37.77;35.38;100243.82;1852043;77;22135;-57
2021/06/30 08:57:46;;;;;;;7.50;5.50;;;;;;;37.79;35.21;100247.22;1833539;77;22176;-56
2021/06/30 09:00:38;;;;;;;8.25;6.03;;;;;;;37.90;35.82;100244.45;1827528;77;22618;-56
2021/06/30 09:03:19;;;;;;;7.67;5.25;;;;;;;37.93;35.26;100246.83;1849990;77;22614;-57
2021/06/30 09:08:53;;;;;;;8.75;5.28;;;;;;;37.84;35.94;100248.00;1806676;77;22186;-57
2021/06/30 09:11:28;;;;;;;8.50;5.92;;;;;;;37.90;35.79;100243.08;1834488;77;22209;-56
2021/06/30 09:14:27;;;;;;;6.55;5.20;;;;;;;37.81;35.76;100241.00;1821277;77;22143;-56
2021/06/30 09:20:10;;;;;;;9.90;6.10;;;;;;;38.02;36.21;100241.45;1805165;77;28436;-56
2021/06/30 09:23:04;;;;;;;17.52;6.33;;;;;;;38.11;35.15;100236.66;1821957;77;22210;-57
2021/06/30 09:25:56;;;;;;;9.40;5.90;;;;;;;38.18;35.89;100233.93;1823340;77;22674;-57
2021/06/30 09:28:29;;;;;;;7.72;5.67;;;;;;;38.23;36.54;100234.17;1852795;77;22179;-56
2021/06/30 09:31:25;;;;;;;7.08;5.72;;;;;;;38.34;36.32;100229.46;1816408;77;22214;-56
2021/06/30 09:33:58;;;;;;;10.25;6.67;;;;;;;38.51;35.96;100226.35;1852690;77;22179;-57
2021/06/30 09:36:50;;;;;;;10.95;5.90;;;;;;;38.50;34.78;100221.91;1837995;77;22664;-56
2021/06/30 09:39:23;;;;;;;7.05;5.85;;;;;;;38.49;35.12;100214.72;1852709;77;22554;-56
2021/06/30 09:42:16;;;;;;;7.50;6.12;;;;;;;38.48;35.37;100218.52;1802592;77;22175;-56
2021/06/30 09:44:49;;;;;;;8.60;6.95;;;;;;;38.52;36.40;100212.92;1834486;77;22144;-56
2021/06/30 09:47:45;;;;;;;8.80;6.17;;;;;;;38.57;35.46;100203.53;1834324;77;22140;-57
2021/06/30 09:50:18;;;;;;;5.85;5.25;;;;;;;38.64;35.82;100210.41;1831380;77;22180;-57
2021/06/30 09:52:51;;;;;;;10.40;6.65;;;;;;;38.71;35.90;100204.94;1852843;77;22175;-57
2021/06/30 09:55:30;;;;;;;26.17;6.75;;;;;;;38.56;35.40;100200.47;1830502;77;22183;-57
2021/06/30 09:58:31;;;;;;;6.78;6.08;;;;;;;38.43;35.46;100204.55;1834381;77;22133;-57
2021/06/30 10:01:18;;;;;;;9.85;6.58;;;;;;;38.39;35.91;100204.13;1819756;77;22579;-57
2021/06/30 10:03:51;;;;;;;7.70;6.50;;;;;;;38.52;37.06;100201.93;1824487;77;22155;-57
2021/06/30 10:06:43;;;;;;;9.73;5.95;;;;;;;38.73;35.63;100195.95;1799074;77;22236;-57
2021/06/30 10:09:16;;;;;;;13.13;6.80;;;;;;;38.88;36.52;100197.16;1851800;77;22586;-57
2021/06/30 10:11:59;;;;;;;16.93;7.85;;;;;;;38.75;35.81;100191.92;1811304;77;22206;-57
2021/06/30 10:14:52;;;;;;;12.85;9.18;;;;;;;38.77;35.17;100198.06;1825095;77;22124;-57
2021/06/30 10:17:25;;;;;;;7.97;6.65;;;;;;;38.64;34.39;100195.28;1819225;77;22585;-57
2021/06/30 10:20:02;;;;;;;8.75;6.40;;;;;;;38.67;35.16;100193.49;1851717;77;22155;-57
2021/06/30 10:22:35;;;;;;;6.33;5.72;;;;;;;38.71;34.07;100190.65;1833888;77;23249;-57
2021/06/30 10:25:10;;;;;;;8.80;5.75;;;;;;;38.64;34.39;100192.53;1814368;77;22143;-57
2021/06/30 10:27:43;;;;;;;9.50;6.15;;;;;;;38.68;34.50;100184.19;1852798;77;22157;-57
2021/06/30 10:30:35;;;;;;;9.40;6.00;;;;;;;38.78;34.73;100172.80;1816100;77;22174;-57
2021/06/30 10:33:08;;;;;;;8.85;6.10;;;;;;;38.93;35.38;100172.63;1852532;77;22163;-57
2021/06/30 10:35:46;;;;;;;7.08;5.35;;;;;;;39.22;34.32;100168.59;1815300;77;22587;-57
2021/06/30 10:38:19;;;;;;;8.83;5.92;;;;;;;39.49;33.92;100164.97;1834334;77;22229;-57
2021/06/30 10:41:36;;;;;;;8.30;5.62;;;;;;;39.40;33.56;100178.09;1813424;77;22194;-57
2021/06/30 10:44:26;;;;;;;6.72;5.50;;;;;;;39.37;34.10;100171.12;1826748;77;22175;-56
2021/06/30 10:47:39;;;;;;;9.50;5.20;;;;;;;39.49;33.92;100163.59;1806188;77;22591;-57
2021/06/30 10:50:32;;;;;;;8.93;5.58;;;;;;;39.50;33.79;100164.74;1830374;77;22132;-56
2021/06/30 10:53:28;;;;;;;7.10;5.33;;;;;;;39.37;33.31;100164.77;1814882;77;22131;-57
2021/06/30 10:56:13;;;;;;;8.03;5.37;;;;;;;39.14;34.19;100155.55;1819639;77;22587;-57
2021/06/30 10:59:01;;;;;;;10.15;5.92;;;;;;;39.14;33.40;100153.67;1839387;77;22185;-57
2021/06/30 11:01:34;;;;;;;10.03;6.17;;;;;;;38.96;33.45;100148.28;1803949;77;22625;-56
2021/06/30 11:04:07;;;;;;;7.83;5.87;;;;;;;38.99;33.38;100144.27;1828434;77;22174;-56
2021/06/30 11:06:41;;;;;;;13.50;6.30;;;;;;;38.97;34.01;100143.09;1831141;77;22682;-56
2021/06/30 11:09:25;;;;;;;10.45;5.85;;;;;;;38.98;33.78;100142.58;1832246;77;22159;-56
2021/06/30 11:12:17;;;;;;;8.85;5.42;;;;;;;38.85;34.17;100140.66;1804873;77;22208;-56
2021/06/30 11:15:09;;;;;;;8.88;5.95;;;;;;;38.65;34.52;100146.98;1833885;77;22177;-56
2021/06/30 11:17:42;;;;;;;8.13;6.33;;;;;;;38.57;35.12;100148.55;1834404;77;22575;-56
2021/06/30 11:20:52;;;;;;;6.42;5.53;;;;;;;38.38;34.15;100146.92;1808872;77;22596;-56
2021/06/30 11:23:27;;;;;;;7.25;5.60;;;;;;;38.30;34.89;100140.24;1834397;77;22602;-56
2021/06/30 11:26:23;;;;;;;8.75;6.10;;;;;;;38.23;35.12;100145.70;1822407;77;22590;-56
2021/06/30 11:28:56;;;;;;;11.38;6.60;;;;;;;38.33;34.96;100141.71;1818077;77;27988;-56
2021/06/30 11:31:48;;;;;;;7.10;5.80;;;;;;;38.42;35.37;100134.17;1808493;77;22214;-56
2021/06/30 11:34:22;;;;;;;11.28;5.60;;;;;;;38.55;35.66;100130.59;1852731;77;22570;-56
2021/06/30 11:36:55;;;;;;;7.28;5.50;;;;;;;38.81;35.62;100129.21;1809321;77;22171;-56
2021/06/30 11:39:49;;;;;;;7.15;5.45;;;;;;;38.95;34.32;100129.25;1833108;77;22152;-56
2021/06/30 11:42:37;;;;;;;8.95;5.97;;;;;;;38.71;32.84;100125.20;1806064;77;28127;-56
2021/06/30 11:45:33;;;;;;;6.60;5.50;;;;;;;38.60;33.12;100128.89;1829298;77;22199;-56
2021/06/30 11:48:28;;;;;;;8.50;5.85;;;;;;;38.62;34.83;100128.15;1795221;77;22650;-55
2021/06/30 11:51:20;;;;;;;7.58;5.83;;;;;;;38.67;34.52;100126.99;1832544;77;22174;-56
2021/06/30 11:54:16;;;;;;;10.75;5.70;;;;;;;38.42;34.49;100121.27;1818919;77;22206;-56
2021/06/30 11:56:49;;;;;;;12.70;5.90;;;;;;;38.13;34.50;100117.80;1809916;77;23348;-56
2021/06/30 11:59:41;;;;;;;9.48;5.83;;;;;;;38.13;35.86;100110.07;1819095;77;22166;-56
2021/06/30 12:02:14;;;;;;;6.75;5.67;;;;;;;38.18;35.45;100111.67;1805678;77;22222;-56
2021/06/30 12:04:47;;;;;;;9.95;5.50;;;;;;;38.07;36.02;100117.25;1841701;77;22173;-56
2021/06/30 12:07:46;;;;;;;13.25;5.72;;;;;;;37.79;36.18;100114.05;1834380;77;22172;-55
2021/06/30 12:10:20;;;;;;;8.38;5.00;;;;;;;37.39;37.31;100114.69;1827285;77;23208;-56
2021/06/30 12:12:53;;;;;;;13.70;6.47;;;;;;;37.15;38.25;100108.61;1825828;77;22162;-56
2021/06/30 12:15:45;;;;;;;17.05;6.85;;;;;;;36.91;38.64;100114.86;1825995;77;22626;-56
2021/06/30 12:18:22;;;;;;;9.35;5.55;;;;;;;36.60;38.29;100116.09;1832555;77;22178;-56
2021/06/30 12:20:55;;;;;;;12.40;6.58;;;;;;;36.40;39.00;100110.89;1841612;77;22593;-56
2021/06/30 12:23:48;;;;;;;12.98;5.60;;;;;;;36.39;39.62;100105.95;1812559;77;22167;-56